Time;durP1;ratioP1;P1;durP2;ratioP2;P2;SDS_P1;SDS_P2;PMS_P1;PMS_P2;Temp;Humidity;BMP_temperature;BMP_pressure;BME280_temperature;BME280_humidity;BME280_pressure;Samples;Min_cycle;Max_cycle;Signal;HPM_P1;HPM_P2
2024/02/04 00:02:14;;;;;;;28.00;4.70;;;;;;;5.51;72.65;100514.44;109106;1254;138913;-68
2024/02/04 00:04:40;;;;;;;11.50;3.40;;;;;;;5.52;72.53;100512.17;107669;1254;75185;-70
2024/02/04 00:07:07;;;;;;;17.40;4.10;;;;;;;5.51;72.43;100514.92;104873;1260;139057;-70
2024/02/04 00:09:34;;;;;;;19.00;4.80;;;;;;;5.48;72.26;100507.34;105012;1260;72336;-70
2024/02/04 00:12:03;;;;;;;17.30;4.00;;;;;;;5.44;72.22;100508.20;104900;1260;138899;-68
2024/02/04 00:14:30;;;;;;;18.80;3.80;;;;;;;5.43;72.15;100516.02;108936;1255;59803;-68
2024/02/04 00:16:57;;;;;;;20.30;4.00;;;;;;;5.44;72.25;100511.88;109188;1257;76439;-68
2024/02/04 00:19:24;;;;;;;20.30;4.00;;;;;;;5.49;72.36;100502.66;108261;1257;138117;-69
2024/02/04 00:21:51;;;;;;;26.70;4.60;;;;;;;5.55;72.27;100510.94;104749;1258;73090;-69
2024/02/04 00:24:19;;;;;;;20.30;4.20;;;;;;;5.62;72.32;100517.33;104719;1258;138478;-69
2024/02/04 00:26:45;;;;;;;16.70;3.90;;;;;;;5.67;72.18;100509.68;109114;1259;60721;-69
2024/02/04 00:29:12;;;;;;;13.70;3.30;;;;;;;5.72;72.00;100505.52;107092;1257;74275;-68
2024/02/04 00:31:39;;;;;;;14.50;4.00;;;;;;;5.76;71.92;100503.95;104765;1257;141429;-69
2024/02/04 00:34:06;;;;;;;19.90;3.70;;;;;;;5.79;71.88;100501.96;105033;1260;72872;-68
2024/02/04 00:36:33;;;;;;;24.00;4.30;;;;;;;5.81;71.80;100502.57;104832;1257;138357;-68
2024/02/04 00:38:59;;;;;;;20.20;4.00;;;;;;;5.82;71.85;100505.23;104752;1262;62105;-69
2024/02/04 00:41:26;;;;;;;20.10;4.50;;;;;;;5.82;71.77;100504.02;104901;1259;75755;-68
2024/02/04 00:43:53;;;;;;;17.40;3.60;;;;;;;5.82;71.61;100502.09;104952;1260;138400;-69
2024/02/04 00:46:20;;;;;;;16.20;3.50;;;;;;;5.79;71.47;100496.56;104974;1260;74200;-69
2024/02/04 00:48:46;;;;;;;21.50;4.50;;;;;;;5.76;71.48;100490.01;104867;1257;137942;-69
2024/02/04 00:51:16;;;;;;;15.80;3.80;;;;;;;5.71;71.27;100491.20;105015;1261;61014;-69
2024/02/04 00:53:43;;;;;;;14.80;3.40;;;;;;;5.64;71.28;100484.33;105042;1259;74902;-69
2024/02/04 00:56:11;;;;;;;17.70;3.70;;;;;;;5.57;71.30;100484.21;104911;1261;138188;-69
2024/02/04 00:58:38;;;;;;;16.50;3.80;;;;;;;5.52;71.21;100489.22;109115;1255;73547;-68
2024/02/04 01:01:05;;;;;;;14.80;3.30;;;;;;;5.46;71.18;100495.25;108883;1255;139133;-68
2024/02/04 01:03:32;;;;;;;14.40;3.60;;;;;;;5.42;71.07;100501.35;109147;1256;59924;-67
2024/02/04 01:05:59;;;;;;;21.20;4.50;;;;;;;5.41;71.18;100496.63;108969;1256;75329;-67
2024/02/04 01:08:26;;;;;;;19.70;3.40;;;;;;;5.43;71.07;100496.52;109156;1255;65059;-60
2024/02/04 01:10:53;;;;;;;13.40;3.30;;;;;;;5.46;71.10;100494.02;109147;1257;72727;-59
2024/02/04 01:13:19;;;;;;;17.60;3.60;;;;;;;5.49;71.20;100493.98;109019;1254;137891;-60
2024/02/04 01:15:46;;;;;;;25.00;3.90;;;;;;;5.52;71.16;100490.27;109014;1254;59807;-59
2024/02/04 01:18:13;;;;;;;14.50;3.80;;;;;;;5.54;71.15;100485.48;109079;1254;138077;-60
2024/02/04 01:20:39;;;;;;;13.10;3.60;;;;;;;5.57;71.04;100486.45;108977;1254;66516;-60
2024/02/04 01:23:07;;;;;;;19.90;4.10;;;;;;;5.61;71.06;100476.70;105635;1261;72235;-60
2024/02/04 01:25:33;;;;;;;19.50;4.00;;;;;;;5.65;70.92;100484.17;104670;1264;138742;-62
2024/02/04 01:28:00;;;;;;;22.40;4.00;;;;;;;5.68;70.83;100484.30;104966;1260;61964;-61
2024/02/04 01:30:30;;;;;;;23.80;4.30;;;;;;;5.70;70.93;100477.58;104881;1258;138702;-60
2024/02/04 01:32:57;;;;;;;23.90;5.40;;;;;;;5.74;70.85;100482.80;109146;1254;65537;-61
2024/02/04 01:35:23;;;;;;;14.70;3.60;;;;;;;5.76;70.84;100487.25;109171;1254;73049;-61
2024/02/04 01:37:50;;;;;;;22.30;3.60;;;;;;;5.79;70.74;100479.14;108901;1254;138495;-61
2024/02/04 01:40:17;;;;;;;17.80;3.70;;;;;;;5.80;70.68;100478.16;109193;1254;61624;-61
2024/02/04 01:42:44;;;;;;;19.20;3.60;;;;;;;5.80;70.63;100467.89;105017;1254;138228;-61
2024/02/04 01:45:11;;;;;;;20.80;3.70;;;;;;;5.81;70.64;100472.27;105008;1260;65675;-60
2024/02/04 01:47:38;;;;;;;15.90;3.70;;;;;;;5.81;70.58;100468.62;104902;1264;72627;-60
2024/02/04 01:50:05;;;;;;;23.10;4.20;;;;;;;5.80;70.45;100467.54;104988;1254;138767;-60
2024/02/04 01:52:32;;;;;;;19.00;3.60;;;;;;;5.79;70.50;100457.40;108882;1254;60190;-62
2024/02/04 01:54:59;;;;;;;19.70;3.80;;;;;;;5.77;70.36;100455.77;108847;1255;139055;-61
2024/02/04 01:57:26;;;;;;;21.50;4.50;;;;;;;5.78;70.36;100456.65;108975;1254;64952;-61
2024/02/04 01:59:54;;;;;;;23.50;4.40;;;;;;;5.79;70.27;100460.73;109002;1254;70774;-61
2024/02/04 02:02:21;;;;;;;19.30;4.10;;;;;;;5.79;70.09;100461.42;108843;1254;137969;-61
2024/02/04 02:04:48;;;;;;;19.50;4.10;;;;;;;5.76;70.04;100452.25;109166;1254;60793;-61
2024/02/04 02:07:19;;;;;;;22.90;4.20;;;;;;;5.72;69.92;100447.56;105397;1254;138049;-60
2024/02/04 02:09:47;;;;;;;20.30;4.20;;;;;;;5.66;70.00;100441.92;104796;1254;67641;-61
2024/02/04 02:12:17;;;;;;;19.00;3.40;;;;;;;5.60;69.92;100434.52;104737;1260;138374;-59
2024/02/04 02:14:46;;;;;;;22.20;3.70;;;;;;;5.52;69.98;100431.63;104935;1259;62027;-60
2024/02/04 02:17:17;;;;;;;23.00;4.60;;;;;;;5.49;70.06;100428.86;109173;1254;60785;-61
2024/02/04 02:19:47;;;;;;;17.10;3.20;;;;;;;5.45;70.12;100425.08;108770;1259;138641;-61
2024/02/04 02:22:39;;;;;;;13.40;3.60;;;;;;;5.42;70.08;100426.54;106217;1259;66355;-60
2024/02/04 02:25:06;;;;;;;18.40;4.50;;;;;;;5.38;70.05;100422.38;104915;1254;138606;-60
2024/02/04 02:27:33;;;;;;;21.10;4.40;;;;;;;5.35;70.23;100416.52;104796;1263;62531;-60
2024/02/04 02:30:00;;;;;;;19.10;4.10;;;;;;;5.35;70.26;100416.46;104931;1255;138366;-60
2024/02/04 02:32:26;;;;;;;22.60;4.40;;;;;;;5.36;70.32;100405.23;105069;1261;76715;-60
2024/02/04 02:34:53;;;;;;;22.20;3.70;;;;;;;5.34;70.37;100397.64;105055;1260;65831;-68
2024/02/04 02:37:31;;;;;;;26.90;3.90;;;;;;;5.30;70.31;100396.27;105033;1254;138404;-69
2024/02/04 02:40:10;;;;;;;28.90;4.20;;;;;;;5.27;70.28;100400.15;105037;1254;62412;-69
2024/02/04 02:42:38;;;;;;;23.50;4.00;;;;;;;5.23;70.30;100397.58;105042;1255;138237;-67
2024/02/04 02:45:05;;;;;;;24.20;3.90;;;;;;;5.21;70.36;100398.87;109086;1254;75928;-69
2024/02/04 02:47:32;;;;;;;20.80;3.80;;;;;;;5.19;70.45;100397.38;108521;1256;67783;-68
2024/02/04 02:50:00;;;;;;;19.20;4.00;;;;;;;5.16;70.40;100400.20;104745;1257;138702;-69
2024/02/04 02:52:27;;;;;;;16.40;3.50;;;;;;;5.14;70.45;100393.53;109077;1254;60037;-70
2024/02/04 02:54:54;;;;;;;21.70;4.50;;;;;;;5.10;70.49;100398.25;109046;1254;139315;-69
2024/02/04 02:57:20;;;;;;;23.60;4.40;;;;;;;5.07;70.52;100392.55;106356;1256;74214;-69
2024/02/04 02:59:47;;;;;;;18.30;3.80;;;;;;;5.05;70.61;100395.10;105189;1259;65865;-69
2024/02/04 03:02:14;;;;;;;20.40;3.50;;;;;;;5.02;70.50;100390.61;104755;1260;138494;-69
2024/02/04 03:04:41;;;;;;;22.60;4.80;;;;;;;5.01;70.64;100400.81;105023;1254;60597;-69
2024/02/04 03:07:07;;;;;;;24.30;4.40;;;;;;;5.00;70.65;100404.28;104726;1262;137872;-68
2024/02/04 03:09:34;;;;;;;22.40;4.40;;;;;;;4.98;70.74;100415.32;104805;1255;74774;-69
2024/02/04 03:12:01;;;;;;;21.50;4.10;;;;;;;4.96;70.85;100403.41;104985;1257;138345;-67
2024/02/04 03:14:28;;;;;;;22.30;4.30;;;;;;;4.99;70.98;100405.98;105080;1257;73403;-68
2024/02/04 03:16:54;;;;;;;17.80;3.80;;;;;;;5.04;71.05;100413.46;104857;1261;61971;-69
2024/02/04 03:19:21;;;;;;;20.90;3.70;;;;;;;5.09;71.13;100410.20;104787;1254;139618;-68
2024/02/04 03:21:48;;;;;;;18.90;4.20;;;;;;;5.11;71.00;100401.75;105086;1259;76198;-69
2024/02/04 03:24:15;;;;;;;23.40;3.70;;;;;;;5.16;71.00;100410.15;104876;1254;138717;-68
2024/02/04 03:26:42;;;;;;;21.60;3.80;;;;;;;5.18;71.01;100407.61;104864;1262;73152;-68
2024/02/04 03:29:08;;;;;;;24.30;4.00;;;;;;;5.18;70.89;100399.09;104835;1261;62048;-69
2024/02/04 03:31:35;;;;;;;20.00;3.70;;;;;;;5.16;70.88;100394.31;104712;1257;138356;-60
2024/02/04 03:34:02;;;;;;;23.00;4.50;;;;;;;5.12;70.88;100385.11;104931;1257;76528;-61
2024/02/04 03:36:30;;;;;;;21.50;4.00;;;;;;;5.07;70.89;100373.95;104782;1255;139399;-61
2024/02/04 03:38:56;;;;;;;22.50;4.50;;;;;;;5.03;70.98;100373.95;104996;1260;72497;-61
2024/02/04 03:41:23;;;;;;;19.70;4.10;;;;;;;4.99;71.02;100365.61;105010;1260;62214;-61
2024/02/04 03:43:50;;;;;;;17.10;3.90;;;;;;;4.97;71.04;100369.52;104882;1254;138963;-61
2024/02/04 03:46:17;;;;;;;13.20;3.10;;;;;;;4.98;71.18;100371.83;104924;1254;76520;-61
2024/02/04 03:48:44;;;;;;;20.50;4.00;;;;;;;4.99;71.21;100373.80;104799;1260;138705;-60
2024/02/04 03:51:17;;;;;;;21.90;4.00;;;;;;;5.00;71.20;100380.10;104992;1256;70696;-61
2024/02/04 03:53:44;;;;;;;;;;;;;;;5.01;71.32;100381.20;104948;1256;62000;-61
2024/02/04 03:56:11;;;;;;;21.70;3.90;;;;;;;5.04;71.21;100381.48;108975;1254;124876;-61
2024/02/04 03:58:38;;;;;;;21.90;4.00;;;;;;;5.05;71.19;100381.35;109108;1254;75187;-61
2024/02/04 04:01:05;;;;;;;20.80;4.80;;;;;;;5.05;71.18;100381.17;108839;1254;139180;-62
2024/02/04 04:03:31;;;;;;;16.70;3.70;;;;;;;5.05;71.20;100369.68;108903;1254;72674;-62
2024/02/04 04:05:58;;;;;;;16.10;3.50;;;;;;;5.07;71.19;100376.38;108424;1254;60118;-61
2024/02/04 04:08:25;;;;;;;19.70;3.40;;;;;;;5.09;71.11;100368.27;105015;1256;138385;-61
2024/02/04 04:10:51;;;;;;;17.10;4.10;;;;;;;5.06;71.13;100368.85;104977;1255;73472;-60
2024/02/04 04:13:18;;;;;;;20.30;3.90;;;;;;;5.03;71.06;100359.34;104996;1258;138810;-62
2024/02/04 04:15:45;;;;;;;26.40;6.30;;;;;;;5.01;71.08;100359.09;104894;1257;73270;-61
2024/02/04 04:18:12;;;;;;;16.60;3.10;;;;;;;4.96;71.03;100346.70;104975;1254;138190;-61
2024/02/04 04:20:40;;;;;;;16.30;3.20;;;;;;;4.89;71.12;100349.21;105114;1259;61889;-61
2024/02/04 04:23:07;;;;;;;14.50;3.60;;;;;;;4.84;71.17;100346.92;105004;1258;76816;-61
2024/02/04 04:25:33;;;;;;;19.90;3.90;;;;;;;4.81;71.30;100349.92;104853;1256;139182;-61
2024/02/04 04:28:00;;;;;;;13.40;3.30;;;;;;;4.78;71.42;100352.41;104901;1255;73900;-61
2024/02/04 04:30:27;;;;;;;16.30;4.00;;;;;;;4.81;71.36;100346.10;104756;1260;138729;-61
2024/02/04 04:32:54;;;;;;;20.30;4.50;;;;;;;4.83;71.49;100339.93;105003;1256;62070;-61
2024/02/04 04:35:21;;;;;;;16.60;3.80;;;;;;;4.83;71.42;100340.45;107229;1254;75763;-62
2024/02/04 04:37:47;;;;;;;20.80;3.80;;;;;;;4.83;71.38;100340.48;104903;1257;138424;-62
2024/02/04 04:40:14;;;;;;;11.80;3.10;;;;;;;4.84;71.39;100337.70;105027;1256;70572;-61
2024/02/04 04:42:41;;;;;;;18.10;3.70;;;;;;;4.84;71.42;100322.05;104810;1255;138043;-61
2024/02/04 04:45:08;;;;;;;22.20;3.70;;;;;;;4.82;71.45;100319.38;104742;1263;62061;-62
2024/02/04 04:47:35;;;;;;;15.50;3.10;;;;;;;4.79;71.57;100313.35;104858;1260;74904;-62
2024/02/04 04:50:03;;;;;;;17.10;2.90;;;;;;;4.77;71.53;100318.27;104714;1260;139081;-61
2024/02/04 04:52:29;;;;;;;20.00;3.20;;;;;;;4.74;71.48;100313.64;109168;1254;72414;-61
2024/02/04 04:54:56;;;;;;;19.30;3.80;;;;;;;4.75;71.64;100320.79;108844;1256;138848;-60
2024/02/04 04:57:23;;;;;;;14.80;3.40;;;;;;;4.76;71.56;100317.56;108963;1254;61087;-60
2024/02/04 04:59:50;;;;;;;15.80;3.10;;;;;;;4.78;71.57;100312.58;108964;1255;74587;-60
2024/02/04 05:02:17;;;;;;;19.70;4.30;;;;;;;4.80;71.64;100319.48;108818;1254;139510;-60
2024/02/04 05:04:44;;;;;;;20.60;3.50;;;;;;;4.87;71.70;100307.76;105355;1259;73948;-60
2024/02/04 05:07:11;;;;;;;20.30;3.70;;;;;;;4.89;71.58;100309.24;104831;1254;138596;-60
2024/02/04 05:09:38;;;;;;;19.70;3.30;;;;;;;4.91;71.58;100302.17;105009;1254;62169;-60
2024/02/04 05:12:08;;;;;;;16.70;3.10;;;;;;;4.92;71.41;100298.90;108864;1256;139132;-61
2024/02/04 05:14:35;;;;;;;19.10;4.30;;;;;;;4.91;71.41;100300.80;109018;1254;66385;-61
2024/02/04 05:17:01;;;;;;;19.70;3.70;;;;;;;4.90;71.46;100302.48;108967;1254;72740;-61
2024/02/04 05:19:28;;;;;;;16.00;3.60;;;;;;;4.90;71.33;100300.06;108878;1255;138996;-61
2024/02/04 05:21:55;;;;;;;16.10;3.80;;;;;;;4.92;71.48;100302.20;109251;1254;60610;-61
2024/02/04 05:24:21;;;;;;;20.40;3.60;;;;;;;4.93;71.34;100300.67;106663;1254;140167;-61
2024/02/04 05:26:48;;;;;;;22.40;4.00;;;;;;;4.92;71.40;100306.73;104821;1260;66857;-61
2024/02/04 05:29:15;;;;;;;18.00;3.70;;;;;;;4.93;71.37;100302.96;104991;1254;72345;-61
2024/02/04 05:31:43;;;;;;;12.40;2.90;;;;;;;4.94;71.36;100301.09;104916;1257;138231;-61
2024/02/04 05:34:10;;;;;;;17.20;3.70;;;;;;;4.95;71.27;100299.91;108990;1254;61327;-67
2024/02/04 05:36:37;;;;;;;14.10;3.00;;;;;;;4.96;71.30;100294.52;109130;1254;138088;-61
2024/02/04 05:39:14;;;;;;;18.00;3.70;;;;;;;4.95;71.32;100293.64;109073;1254;64100;-62
2024/02/04 05:41:41;;;;;;;18.70;3.80;;;;;;;4.95;71.25;100297.30;107089;1256;72642;-61
2024/02/04 05:44:08;;;;;;;15.90;3.40;;;;;;;4.97;71.37;100297.71;104901;1254;138755;-61
2024/02/04 05:46:38;;;;;;;20.90;3.60;;;;;;;4.99;71.30;100287.02;105015;1259;62056;-61
2024/02/04 05:49:05;;;;;;;16.00;3.40;;;;;;;5.02;71.26;100293.21;104692;1257;138790;-61
2024/02/04 05:51:33;;;;;;;18.20;4.00;;;;;;;5.05;71.20;100295.95;104974;1259;65792;-61
2024/02/04 05:54:00;;;;;;;18.40;3.50;;;;;;;5.07;71.22;100301.58;105110;1259;73344;-61
2024/02/04 05:56:27;;;;;;;24.40;4.00;;;;;;;5.12;71.21;100298.15;104717;1262;62169;-61
2024/02/04 05:58:53;;;;;;;24.50;4.10;;;;;;;5.16;71.05;100303.72;105005;1259;62054;-61
2024/02/04 06:01:20;;;;;;;25.70;4.10;;;;;;;5.17;71.10;100296.77;104782;1256;138206;-61
2024/02/04 06:03:47;;;;;;;21.20;4.00;;;;;;;5.16;71.02;100296.56;104895;1256;65938;-61
2024/02/04 06:06:19;;;;;;;14.80;4.50;;;;;;;5.14;71.09;100292.83;104858;1257;138999;-61
2024/02/04 06:08:47;;;;;;;25.80;4.10;;;;;;;5.12;71.09;100292.77;107180;1259;62141;-61
2024/02/04 06:11:14;;;;;;;14.40;2.90;;;;;;;5.12;71.12;100303.55;104991;1257;62597;-61
2024/02/04 06:13:42;;;;;;;18.30;4.00;;;;;;;5.12;71.22;100305.80;108814;1256;139490;-61
2024/02/04 06:16:12;;;;;;;18.90;3.70;;;;;;;5.13;71.22;100308.79;108954;1254;66286;-62
2024/02/04 06:18:39;;;;;;;20.10;3.60;;;;;;;5.17;71.27;100309.81;108920;1254;138744;-62
2024/02/04 06:21:06;;;;;;;18.50;3.40;;;;;;;5.21;71.34;100305.98;105461;1260;62042;-61
2024/02/04 06:23:33;;;;;;;15.80;3.40;;;;;;;5.25;71.33;100304.40;104919;1259;62150;-61
2024/02/04 06:26:00;;;;;;;15.10;3.50;;;;;;;5.28;71.31;100303.80;104949;1255;137852;-60
2024/02/04 06:28:27;;;;;;;19.10;3.60;;;;;;;5.30;71.36;100300.60;109118;1254;67507;-62
2024/02/04 06:30:54;;;;;;;18.80;3.70;;;;;;;5.33;71.39;100303.13;105340;1257;139234;-61
2024/02/04 06:33:25;;;;;;;22.80;3.50;;;;;;;5.35;71.40;100300.61;105270;1259;62096;-61
2024/02/04 06:35:55;;;;;;;14.40;3.10;;;;;;;5.37;71.52;100295.30;108902;1254;60028;-61
2024/02/04 06:38:22;;;;;;;17.80;4.00;;;;;;;5.39;71.48;100294.33;105165;1254;138523;-61
2024/02/04 06:40:49;;;;;;;18.70;4.10;;;;;;;5.43;71.58;100291.69;105207;1257;65290;-61
2024/02/04 06:43:16;;;;;;;15.10;3.50;;;;;;;5.48;71.78;100289.77;105218;1259;138948;-61
2024/02/04 06:45:42;;;;;;;18.90;3.60;;;;;;;5.52;71.84;100287.33;105053;1259;62082;-60
2024/02/04 06:48:09;;;;;;;20.10;3.80;;;;;;;5.56;71.96;100285.75;104749;1257;138512;-61
2024/02/04 06:50:39;;;;;;;15.30;3.50;;;;;;;5.59;71.98;100279.77;104860;1254;75644;-61
2024/02/04 06:53:06;;;;;;;15.20;3.70;;;;;;;5.60;72.11;100291.30;105128;1254;66770;-61
2024/02/04 06:55:33;;;;;;;19.90;3.70;;;;;;;5.61;72.20;100283.65;104672;1257;138625;-61
2024/02/04 06:57:59;;;;;;;20.20;4.10;;;;;;;5.61;72.26;100282.64;104942;1255;62434;-61
2024/02/04 07:00:26;;;;;;;17.60;3.80;;;;;;;5.62;72.55;100285.61;104954;1259;138744;-61
2024/02/04 07:02:53;;;;;;;14.10;3.40;;;;;;;5.62;72.71;100285.11;104914;1260;74680;-61
2024/02/04 07:05:21;;;;;;;16.40;3.40;;;;;;;5.62;72.77;100279.36;105013;1256;66667;-62
2024/02/04 07:07:49;;;;;;;16.40;3.10;;;;;;;5.63;72.80;100279.38;108852;1254;139033;-61
2024/02/04 07:10:16;;;;;;;14.80;3.70;;;;;;;5.63;73.02;100282.55;109136;1254;59732;-61
2024/02/04 07:12:43;;;;;;;12.30;3.00;;;;;;;5.66;73.10;100276.20;108791;1254;139100;-60
2024/02/04 07:15:10;;;;;;;13.70;3.40;;;;;;;5.69;73.22;100278.73;109044;1254;76082;-61
2024/02/04 07:17:37;;;;;;;18.10;4.10;;;;;;;5.74;73.30;100276.65;109000;1254;66245;-60
2024/02/04 07:20:05;;;;;;;11.60;3.70;;;;;;;5.79;73.42;100266.58;108802;1254;138832;-60
2024/02/04 07:22:32;;;;;;;13.60;3.30;;;;;;;5.85;73.42;100271.84;109210;1254;59764;-60
2024/02/04 07:24:59;;;;;;;12.00;3.60;;;;;;;5.89;73.49;100267.64;109081;1254;137953;-61
2024/02/04 07:27:25;;;;;;;14.70;3.00;;;;;;;5.93;73.51;100267.95;109111;1256;75445;-60
2024/02/04 07:29:54;;;;;;;19.10;3.90;;;;;;;5.96;73.49;100265.33;108975;1254;64525;-61
2024/02/04 07:32:21;;;;;;;15.10;3.40;;;;;;;6.00;73.60;100268.03;108820;1256;138546;-68
2024/02/04 07:34:48;;;;;;;14.70;3.00;;;;;;;6.03;73.71;100267.13;108930;1256;59791;-67
2024/02/04 07:37:17;;;;;;;13.70;3.10;;;;;;;6.05;73.64;100263.36;108900;1254;139853;-67
2024/02/04 07:39:44;;;;;;;18.30;3.50;;;;;;;6.04;73.73;100250.08;108218;1256;75109;-68
2024/02/04 07:42:10;;;;;;;12.40;3.10;;;;;;;6.09;73.74;100263.49;104747;1261;139642;-60
2024/02/04 07:44:37;;;;;;;16.10;3.20;;;;;;;6.12;73.87;100260.29;104721;1261;73736;-60
2024/02/04 07:47:04;;;;;;;11.10;3.10;;;;;;;6.15;73.93;100261.27;104838;1257;60684;-68
2024/02/04 07:49:31;;;;;;;23.60;6.10;;;;;;;6.16;74.01;100260.61;105002;1255;138246;-62
2024/02/04 07:51:58;;;;;;;18.60;4.70;;;;;;;6.16;74.06;100256.95;104846;1254;75593;-68
2024/02/04 07:54:24;;;;;;;15.90;4.20;;;;;;;6.15;74.12;100255.16;104910;1258;138424;-61
2024/02/04 07:56:51;;;;;;;16.10;4.60;;;;;;;6.15;74.18;100252.36;104875;1262;72081;-68
2024/02/04 07:59:18;;;;;;;20.10;4.10;;;;;;;6.16;74.37;100254.52;105035;1259;62127;-69
2024/02/04 08:01:45;;;;;;;16.00;4.40;;;;;;;6.20;74.43;100246.46;104981;1258;139048;-69
2024/02/04 08:04:12;;;;;;;17.50;4.30;;;;;;;6.23;74.44;100243.08;104777;1255;76263;-61
2024/02/04 08:06:39;;;;;;;23.80;6.70;;;;;;;6.26;74.47;100237.24;104984;1258;139059;-68
2024/02/04 08:09:06;;;;;;;18.20;5.00;;;;;;;6.30;74.50;100239.10;104847;1256;72179;-67
2024/02/04 08:11:33;;;;;;;20.60;3.90;;;;;;;6.35;74.51;100238.42;104792;1256;62273;-67
2024/02/04 08:14:00;;;;;;;16.30;3.70;;;;;;;6.39;74.44;100236.30;109021;1254;138703;-68
2024/02/04 08:16:27;;;;;;;14.20;4.30;;;;;;;6.42;74.34;100230.82;108919;1255;74732;-68
2024/02/04 08:18:53;;;;;;;16.30;4.80;;;;;;;6.44;74.29;100232.61;109089;1254;138204;-68
2024/02/04 08:21:20;;;;;;;21.40;4.50;;;;;;;6.48;74.23;100233.62;109005;1255;73952;-69
2024/02/04 08:23:47;;;;;;;10.80;3.50;;;;;;;6.50;74.12;100227.41;108974;1255;59835;-69
2024/02/04 08:26:14;;;;;;;21.40;4.10;;;;;;;6.51;74.03;100229.17;109110;1254;138413;-62
2024/02/04 08:28:41;;;;;;;13.20;3.60;;;;;;;6.50;74.06;100228.30;106246;1256;74119;-61
2024/02/04 08:31:07;;;;;;;16.30;3.20;;;;;;;6.49;73.97;100229.98;104868;1254;139220;-60
2024/02/04 08:33:34;;;;;;;14.60;3.60;;;;;;;6.49;74.20;100234.02;105043;1258;71952;-60
2024/02/04 08:36:01;;;;;;;13.10;3.50;;;;;;;6.52;74.29;100234.82;105057;1257;62160;-61
2024/02/04 08:38:28;;;;;;;12.60;3.60;;;;;;;6.56;74.34;100229.70;105110;1259;62066;-61
2024/02/04 08:40:54;;;;;;;12.30;3.40;;;;;;;6.60;74.44;100225.86;104930;1259;74632;-69
2024/02/04 08:43:21;;;;;;;20.60;5.70;;;;;;;6.65;74.45;100224.06;104663;1261;138951;-68
2024/02/04 08:45:48;;;;;;;15.00;4.10;;;;;;;6.68;74.54;100226.60;104951;1256;71760;-68
2024/02/04 08:48:14;;;;;;;12.90;3.50;;;;;;;6.68;74.54;100231.83;104947;1257;138943;-68
2024/02/04 08:50:41;;;;;;;13.30;3.10;;;;;;;6.69;74.59;100231.35;105064;1258;62040;-72
2024/02/04 08:53:08;;;;;;;13.10;3.20;;;;;;;6.67;74.58;100226.73;105046;1254;75743;-69
2024/02/04 08:55:35;;;;;;;17.00;4.20;;;;;;;6.63;74.54;100230.28;104851;1257;138516;-61
2024/02/04 08:58:01;;;;;;;15.80;3.50;;;;;;;6.59;74.67;100229.63;105213;1257;73276;-68
2024/02/04 09:00:28;;;;;;;11.40;3.00;;;;;;;6.56;74.79;100231.27;104809;1258;139890;-61
2024/02/04 09:02:55;;;;;;;12.90;3.50;;;;;;;6.55;74.93;100236.81;105203;1258;62200;-61
2024/02/04 09:05:22;;;;;;;10.90;3.10;;;;;;;6.56;75.13;100236.86;105139;1258;76232;-61
2024/02/04 09:07:49;;;;;;;19.10;4.30;;;;;;;6.55;75.10;100239.79;105015;1257;138894;-61
2024/02/04 09:10:16;;;;;;;15.10;5.70;;;;;;;6.55;75.12;100241.70;105057;1258;73920;-61
2024/02/04 09:12:43;;;;;;;15.90;5.50;;;;;;;6.52;75.12;100235.70;105024;1258;138979;-61
2024/02/04 09:15:10;;;;;;;18.40;4.60;;;;;;;6.53;75.22;100235.17;105045;1258;62178;-61
2024/02/04 09:17:37;;;;;;;18.30;4.80;;;;;;;6.53;75.32;100234.32;108999;1254;74670;-60
2024/02/04 09:20:04;;;;;;;14.10;4.10;;;;;;;6.53;75.34;100231.88;106393;1258;138117;-62
2024/02/04 09:22:31;;;;;;;18.20;4.60;;;;;;;6.54;75.37;100229.99;108195;1255;72897;-69
2024/02/04 09:24:57;;;;;;;13.20;3.80;;;;;;;6.54;75.30;100224.92;104540;1257;220120;-68
2024/02/04 09:27:25;;;;;;;14.80;3.70;;;;;;;6.53;75.35;100221.24;104972;1257;62127;-60
2024/02/04 09:29:54;;;;;;;13.20;3.20;;;;;;;6.58;75.53;100213.92;107169;1256;74926;-62
2024/02/04 09:32:21;;;;;;;12.50;3.30;;;;;;;6.62;75.41;100208.65;108994;1256;138469;-60
2024/02/04 09:34:48;;;;;;;18.00;4.00;;;;;;;6.67;75.40;100208.95;109087;1256;70716;-68
2024/02/04 09:37:16;;;;;;;15.50;6.40;;;;;;;6.73;75.48;100198.17;108931;1255;139348;-67
2024/02/04 09:39:42;;;;;;;16.20;5.40;;;;;;;6.81;75.45;100196.52;107936;1256;61411;-60
2024/02/04 09:42:09;;;;;;;14.20;4.00;;;;;;;6.88;75.39;100197.58;105027;1259;139017;-63
2024/02/04 09:44:36;;;;;;;19.20;5.40;;;;;;;6.94;75.26;100200.05;104968;1259;66970;-61
2024/02/04 09:47:03;;;;;;;15.70;4.50;;;;;;;6.99;75.18;100194.24;104678;1262;73664;-67
2024/02/04 09:49:30;;;;;;;15.10;4.90;;;;;;;7.04;75.15;100193.87;108843;1255;139692;-68
2024/02/04 09:51:57;;;;;;;20.60;4.90;;;;;;;7.08;75.13;100189.66;108974;1256;60104;-62
2024/02/04 09:54:24;;;;;;;14.50;4.30;;;;;;;7.13;75.01;100188.24;108900;1256;138704;-62
2024/02/04 09:56:50;;;;;;;20.50;7.40;;;;;;;7.22;75.09;100182.38;108888;1256;65441;-62
2024/02/04 09:59:17;;;;;;;17.60;5.00;;;;;;;7.34;75.07;100178.52;106404;1261;70700;-61
2024/02/04 10:01:44;;;;;;;15.10;5.40;;;;;;;7.41;74.72;100176.13;104862;1257;139234;-61
2024/02/04 10:04:11;;;;;;;77.90;46.80;;;;;;;7.47;74.71;100177.89;104916;1257;62059;-62
2024/02/04 10:06:37;;;;;;;17.50;6.20;;;;;;;7.51;74.47;100173.27;104896;1256;138912;-62
2024/02/04 10:09:04;;;;;;;12.10;4.40;;;;;;;7.52;74.37;100174.52;104957;1256;66030;-61
2024/02/04 10:11:31;;;;;;;9.60;4.90;;;;;;;7.55;74.45;100175.31;104993;1262;72948;-67
2024/02/04 10:13:58;;;;;;;17.70;7.00;;;;;;;7.57;74.22;100173.09;104895;1262;137896;-67
2024/02/04 10:16:24;;;;;;;14.90;5.40;;;;;;;7.58;74.15;100179.38;105066;1259;62076;-68
2024/02/04 10:18:53;;;;;;;11.70;4.50;;;;;;;7.54;74.19;100175.98;104747;1257;138434;-67
2024/02/04 10:21:21;;;;;;;13.50;5.30;;;;;;;7.52;74.20;100177.48;104977;1257;65631;-61
2024/02/04 10:23:48;;;;;;;21.20;7.90;;;;;;;7.48;74.30;100170.91;104838;1256;72562;-61
2024/02/04 10:26:16;;;;;;;18.30;8.80;;;;;;;7.48;74.37;100166.71;108919;1257;139007;-62
2024/02/04 10:28:47;;;;;;;23.00;11.10;;;;;;;7.48;74.36;100162.88;105550;1259;62061;-61
2024/02/04 10:31:14;;;;;;;19.40;11.00;;;;;;;7.53;74.61;100153.77;104698;1262;138937;-61
2024/02/04 10:33:41;;;;;;;13.70;5.20;;;;;;;7.57;74.44;100152.84;106097;1260;65598;-60
2024/02/04 10:36:08;;;;;;;22.80;11.60;;;;;;;7.56;74.24;100144.10;104625;1257;138827;-67
2024/02/04 10:38:35;;;;;;;16.30;6.50;;;;;;;7.53;74.32;100142.78;104964;1257;62179;-68
2024/02/04 10:41:02;;;;;;;15.90;6.30;;;;;;;7.51;74.33;100144.10;104923;1259;62028;-68
2024/02/04 10:43:33;;;;;;;22.10;12.60;;;;;;;7.44;74.22;100146.00;104721;1256;138428;-68
2024/02/04 10:46:23;;;;;;;15.50;5.90;;;;;;;7.39;74.34;100147.27;109107;1256;66842;-68
2024/02/04 10:49:00;;;;;;;19.20;4.70;;;;;;;7.34;74.51;100151.82;108805;1259;138145;-67
2024/02/04 10:51:27;;;;;;;17.90;7.50;;;;;;;7.25;74.42;100146.52;108983;1256;59853;-67
2024/02/04 10:53:57;;;;;;;18.20;6.00;;;;;;;7.19;74.53;100142.70;108918;1259;60342;-67
2024/02/04 10:56:24;;;;;;;14.60;5.80;;;;;;;7.13;74.60;100134.31;108924;1256;138440;-67
2024/02/04 10:58:51;;;;;;;19.70;8.30;;;;;;;7.09;74.73;100131.59;109095;1256;65057;-67
2024/02/04 11:01:18;;;;;;;18.50;8.70;;;;;;;7.10;74.89;100119.56;108864;1255;138712;-67
2024/02/04 11:03:45;;;;;;;17.00;8.50;;;;;;;7.11;74.96;100108.98;109049;1256;60681;-67
2024/02/04 11:06:11;;;;;;;34.10;22.00;;;;;;;7.13;74.96;100106.23;108293;1257;139096;-67
2024/02/04 11:08:39;;;;;;;16.60;8.00;;;;;;;7.17;75.04;100101.64;105043;1256;75267;-67
2024/02/04 11:11:05;;;;;;;19.60;9.20;;;;;;;7.22;75.05;100096.19;108859;1255;66829;-67
2024/02/04 11:13:32;;;;;;;39.40;24.50;;;;;;;7.25;75.06;100092.25;108754;1256;138279;-66
2024/02/04 11:16:01;;;;;;;13.40;6.50;;;;;;;7.25;74.97;100086.67;108849;1256;59720;-67